Time;durP1;ratioP1;P1;durP2;ratioP2;P2;SDS_P1;SDS_P2;PMS_P1;PMS_P2;Temp;Humidity;BMP_temperature;BMP_pressure;BME280_temperature;BME280_humidity;BME280_pressure;Samples;Min_cycle;Max_cycle;Signal;HPM_P1;HPM_P2
2021/08/24 00:01:37;;;;;;;3.88;2.63;;;;;;;;;;5092149;28;20038;-66
2021/08/24 00:04:03;;;;;;;3.90;2.72;;;;;;;;;;5073747;28;20036;-65
2021/08/24 00:06:30;;;;;;;3.58;2.95;;;;;;;;;;5088356;28;20028;-68
2021/08/24 00:08:56;;;;;;;4.20;2.63;;;;;;;;;;5091950;28;20031;-67
2021/08/24 00:11:22;;;;;;;4.07;2.58;;;;;;;;;;5089085;28;20047;-65
2021/08/24 00:13:48;;;;;;;3.45;2.85;;;;;;;;;;5087139;28;20694;-66
2021/08/24 00:16:17;;;;;;;3.17;2.67;;;;;;;;;;5088683;28;20075;-66
2021/08/24 00:18:43;;;;;;;4.47;2.63;;;;;;;;;;5090507;28;20036;-65
2021/08/24 00:21:09;;;;;;;3.50;2.97;;;;;;;;;;5086079;28;20640;-66
2021/08/24 00:23:36;;;;;;;4.07;3.15;;;;;;;;;;5072297;28;20032;-65
2021/08/24 00:26:02;;;;;;;4.32;2.97;;;;;;;;;;5091693;28;20020;-65
2021/08/24 00:28:28;;;;;;;4.40;2.97;;;;;;;;;;5091498;28;20028;-66
2021/08/24 00:30:55;;;;;;;11.02;3.28;;;;;;;;;;5090906;28;20073;-66
2021/08/24 00:33:21;;;;;;;6.13;4.10;;;;;;;;;;5089739;28;20123;-65
2021/08/24 00:35:48;;;;;;;5.18;3.60;;;;;;;;;;5088231;28;20027;-66
2021/08/24 00:38:16;;;;;;;5.75;3.25;;;;;;;;;;5093603;28;20464;-65
2021/08/24 00:40:43;;;;;;;8.73;3.20;;;;;;;;;;5091228;28;20031;-66
2021/08/24 00:43:10;;;;;;;4.43;3.35;;;;;;;;;;5090032;28;20024;-65
2021/08/24 00:45:41;;;;;;;6.63;3.33;;;;;;;;;;5085997;28;20121;-65
2021/08/24 00:48:08;;;;;;;7.90;3.50;;;;;;;;;;5090441;28;20027;-65
2021/08/24 00:50:36;;;;;;;7.00;3.38;;;;;;;;;;5088802;28;20073;-65
2021/08/24 00:53:04;;;;;;;7.72;3.70;;;;;;;;;;5094048;28;20915;-67
2021/08/24 00:55:31;;;;;;;4.38;3.58;;;;;;;;;;5084331;28;20540;-66
2021/08/24 00:57:58;;;;;;;5.75;3.97;;;;;;;;;;5090871;28;20593;-65
2021/08/24 01:00:29;;;;;;;6.10;3.45;;;;;;;;;;5089753;28;20032;-65
2021/08/24 01:03:03;;;;;;;9.13;3.05;;;;;;;;;;5087488;28;20032;-66
2021/08/24 01:05:29;;;;;;;6.00;3.58;;;;;;;;;;5088207;28;20016;-65
2021/08/24 01:07:58;;;;;;;4.80;2.85;;;;;;;;;;5086054;28;20483;-66
2021/08/24 01:10:24;;;;;;;5.13;2.97;;;;;;;;;;5091471;28;20082;-65
2021/08/24 01:13:00;;;;;;;4.47;2.90;;;;;;;;;;5087860;28;20032;-65
2021/08/24 01:15:29;;;;;;;4.07;3.20;;;;;;;;;;5091490;28;20092;-65
2021/08/24 01:18:07;;;;;;;4.63;3.30;;;;;;;;;;5090202;28;20036;-65
2021/08/24 01:20:54;;;;;;;4.72;2.90;;;;;;;;;;5092159;28;20024;-65
2021/08/24 01:23:20;;;;;;;9.25;3.67;;;;;;;;;;5070021;28;20044;-65
2021/08/24 01:25:50;;;;;;;4.10;3.30;;;;;;;;;;5093168;28;20047;-65
2021/08/24 01:28:22;;;;;;;5.65;3.47;;;;;;;;;;5088348;28;20032;-65
2021/08/24 01:30:48;;;;;;;6.03;3.50;;;;;;;;;;5092503;28;20103;-66
2021/08/24 01:33:53;;;;;;;5.60;3.42;;;;;;;;;;5084204;28;20118;-65
2021/08/24 01:36:22;;;;;;;7.18;3.40;;;;;;;;;;5019056;28;20074;-66
2021/08/24 01:39:08;;;;;;;4.70;3.60;;;;;;;;;;5015384;28;20028;-66
2021/08/24 01:41:54;;;;;;;4.60;3.35;;;;;;;;;;5062506;28;20032;-65
2021/08/24 01:44:22;;;;;;;7.28;3.58;;;;;;;;;;5086108;28;20028;-65
2021/08/24 01:47:12;;;;;;;4.47;3.40;;;;;;;;;;5091129;28;20084;-65
2021/08/24 01:49:43;;;;;;;4.53;3.40;;;;;;;;;;5089680;28;20023;-66
2021/08/24 01:52:11;;;;;;;5.22;3.35;;;;;;;;;;5086888;28;20590;-65
2021/08/24 01:55:05;;;;;;;4.05;3.08;;;;;;;;;;5080040;28;20058;-65
2021/08/24 01:57:33;;;;;;;6.10;3.70;;;;;;;;;;5086651;28;20039;-65
2021/08/24 02:00:05;;;;;;;4.40;3.38;;;;;;;;;;5086765;28;20027;-65
2021/08/24 02:02:38;;;;;;;3.33;3.03;;;;;;;;;;5087186;28;20020;-66
2021/08/24 02:05:09;;;;;;;4.68;3.30;;;;;;;;;;5090691;28;20040;-67
2021/08/24 02:07:35;;;;;;;3.75;3.30;;;;;;;;;;5090875;28;20024;-66
2021/08/24 02:10:06;;;;;;;5.50;3.00;;;;;;;;;;5093965;28;20035;-65
2021/08/24 02:12:34;;;;;;;3.55;2.90;;;;;;;;;;5086508;28;20017;-66
2021/08/24 02:15:01;;;;;;;4.30;3.17;;;;;;;;;;5089632;28;20162;-65
2021/08/24 02:17:28;;;;;;;4.88;3.45;;;;;;;;;;5091044;28;20562;-65
2021/08/24 02:20:00;;;;;;;4.82;3.28;;;;;;;;;;5088107;28;20020;-65
2021/08/24 02:22:33;;;;;;;4.38;2.80;;;;;;;;;;5092196;28;20496;-65
2021/08/24 02:25:10;;;;;;;4.03;3.08;;;;;;;;;;5091062;28;20530;-65
2021/08/24 02:27:39;;;;;;;5.05;2.92;;;;;;;;;;5095972;28;20028;-65
2021/08/24 02:30:05;;;;;;;4.25;3.03;;;;;;;;;;5092085;28;20055;-66
2021/08/24 02:32:35;;;;;;;3.65;3.00;;;;;;;;;;5097323;28;20019;-66
2021/08/24 02:35:06;;;;;;;3.20;2.70;;;;;;;;;;5094978;28;20032;-65
2021/08/24 02:37:50;;;;;;;3.50;2.85;;;;;;;;;;5093775;28;20441;-66
2021/08/24 02:40:19;;;;;;;4.40;3.30;;;;;;;;;;5093372;28;20028;-65
2021/08/24 02:42:54;;;;;;;4.50;3.30;;;;;;;;;;5094032;28;20030;-65
2021/08/24 02:45:29;;;;;;;6.10;3.17;;;;;;;;;;5093669;28;20028;-68
2021/08/24 02:47:56;;;;;;;4.72;3.15;;;;;;;;;;5092798;28;20088;-66
2021/08/24 02:50:23;;;;;;;3.83;2.75;;;;;;;;;;5093772;28;20024;-65
2021/08/24 02:52:49;;;;;;;3.25;2.80;;;;;;;;;;5097872;28;20024;-67
2021/08/24 02:55:15;;;;;;;5.45;3.13;;;;;;;;;;5093357;28;20040;-65
2021/08/24 02:57:42;;;;;;;5.40;3.33;;;;;;;;;;5094967;28;20024;-65
2021/08/24 03:00:08;;;;;;;4.20;3.22;;;;;;;;;;5093200;28;20024;-65
2021/08/24 03:02:35;;;;;;;3.88;2.80;;;;;;;;;;5092858;27;20352;-65
2021/08/24 03:05:01;;;;;;;6.53;3.50;;;;;;;;;;5091509;28;20027;-65
2021/08/24 03:07:28;;;;;;;9.25;3.35;;;;;;;;;;5091867;28;20062;-65
2021/08/24 03:09:56;;;;;;;5.30;3.90;;;;;;;;;;5092913;28;20035;-66
2021/08/24 03:12:28;;;;;;;7.22;4.10;;;;;;;;;;5091089;28;20023;-65
2021/08/24 03:14:58;;;;;;;8.05;4.25;;;;;;;;;;5091757;28;20114;-65
2021/08/24 03:17:42;;;;;;;6.38;3.95;;;;;;;;;;5091335;28;20102;-65
2021/08/24 03:20:10;;;;;;;6.78;3.58;;;;;;;;;;5089824;28;20493;-65
2021/08/24 03:22:37;;;;;;;6.80;3.30;;;;;;;;;;5089496;28;20020;-65
2021/08/24 03:25:04;;;;;;;5.93;3.50;;;;;;;;;;5092496;28;20294;-65
2021/08/24 03:27:38;;;;;;;6.28;3.97;;;;;;;;;;5090615;28;20246;-65
2021/08/24 03:30:06;;;;;;;4.35;3.53;;;;;;;;;;5090484;28;20040;-65
2021/08/24 03:32:32;;;;;;;6.75;3.75;;;;;;;;;;5089062;28;20030;-66
2021/08/24 03:34:59;;;;;;;8.27;3.88;;;;;;;;;;5090117;28;20038;-66
2021/08/24 03:37:25;;;;;;;4.22;3.25;;;;;;;;;;5093565;28;20483;-65
2021/08/24 03:39:51;;;;;;;6.15;3.85;;;;;;;;;;5090116;28;20213;-65
2021/08/24 03:42:17;;;;;;;4.55;3.30;;;;;;;;;;5094510;28;20043;-65
2021/08/24 03:44:46;;;;;;;3.88;3.10;;;;;;;;;;5088583;28;20283;-65
2021/08/24 03:47:12;;;;;;;4.07;3.35;;;;;;;;;;5091109;28;20509;-65
2021/08/24 03:49:38;;;;;;;7.28;3.85;;;;;;;;;;5091353;28;20030;-65
2021/08/24 03:52:05;;;;;;;4.20;3.15;;;;;;;;;;5090230;28;20031;-65
2021/08/24 03:54:31;;;;;;;6.40;3.85;;;;;;;;;;5091724;28;20423;-65
2021/08/24 03:56:57;;;;;;;6.55;3.83;;;;;;;;;;5085475;28;20059;-65
2021/08/24 03:59:23;;;;;;;5.57;3.60;;;;;;;;;;5091477;28;20536;-65
2021/08/24 04:01:49;;;;;;;4.88;3.65;;;;;;;;;;5088972;28;20024;-65
2021/08/24 04:04:16;;;;;;;5.93;3.67;;;;;;;;;;5092961;28;20378;-65
2021/08/24 04:06:42;;;;;;;6.20;3.45;;;;;;;;;;5090227;28;20066;-65
2021/08/24 04:09:08;;;;;;;4.57;3.55;;;;;;;;;;5089379;28;20020;-68
2021/08/24 04:11:34;;;;;;;9.55;3.70;;;;;;;;;;5090648;28;20024;-65
2021/08/24 04:14:00;;;;;;;5.75;3.70;;;;;;;;;;5087616;28;20630;-65
2021/08/24 04:16:27;;;;;;;5.70;3.78;;;;;;;;;;5089912;28;20024;-65
2021/08/24 04:18:53;;;;;;;6.32;3.38;;;;;;;;;;5089971;28;20019;-65
2021/08/24 04:21:19;;;;;;;5.80;4.00;;;;;;;;;;5085278;28;20032;-68
2021/08/24 04:23:46;;;;;;;6.45;3.60;;;;;;;;;;5089741;28;20383;-65
2021/08/24 04:26:13;;;;;;;7.35;3.25;;;;;;;;;;5085113;28;20032;-65
2021/08/24 04:28:39;;;;;;;7.78;4.18;;;;;;;;;;5090083;28;20100;-65
2021/08/24 04:31:06;;;;;;;6.57;3.53;;;;;;;;;;5087352;28;20111;-66
2021/08/24 04:33:33;;;;;;;5.80;3.88;;;;;;;;;;5089336;28;20572;-65
2021/08/24 04:36:00;;;;;;;5.78;3.15;;;;;;;;;;5086604;28;20034;-65
2021/08/24 04:38:27;;;;;;;9.50;4.10;;;;;;;;;;5087395;28;20032;-65
2021/08/24 04:40:54;;;;;;;6.57;3.45;;;;;;;;;;5089282;28;20027;-66
2021/08/24 04:43:20;;;;;;;4.88;3.85;;;;;;;;;;5086697;28;20351;-65
2021/08/24 04:45:46;;;;;;;5.22;3.97;;;;;;;;;;5087824;28;20549;-65
2021/08/24 04:48:13;;;;;;;5.53;3.42;;;;;;;;;;5081423;28;20038;-65
2021/08/24 04:50:39;;;;;;;7.43;3.80;;;;;;;;;;5085443;28;20031;-66
2021/08/24 04:53:05;;;;;;;7.57;3.75;;;;;;;;;;5087595;28;20027;-66
2021/08/24 04:55:32;;;;;;;6.35;4.13;;;;;;;;;;5087517;28;20051;-66
2021/08/24 04:57:59;;;;;;;6.97;4.07;;;;;;;;;;5089988;28;20541;-65
2021/08/24 05:00:25;;;;;;;7.68;3.92;;;;;;;;;;5084492;28;20028;-65
2021/08/24 05:02:52;;;;;;;5.40;3.90;;;;;;;;;;5090750;28;20028;-66
2021/08/24 05:05:18;;;;;;;7.65;3.92;;;;;;;;;;5083342;28;20026;-68
2021/08/24 05:07:44;;;;;;;7.00;4.00;;;;;;;;;;5090388;28;20031;-65
2021/08/24 05:10:10;;;;;;;5.97;3.97;;;;;;;;;;5085071;28;20089;-65
2021/08/24 05:12:36;;;;;;;5.32;3.70;;;;;;;;;;5084644;28;20335;-68
2021/08/24 05:15:03;;;;;;;3.75;3.30;;;;;;;;;;5087739;28;20038;-67
2021/08/24 05:17:29;;;;;;;4.65;3.75;;;;;;;;;;5088195;28;20028;-65
2021/08/24 05:19:55;;;;;;;4.07;3.55;;;;;;;;;;5084812;28;20039;-67
2021/08/24 05:22:21;;;;;;;4.90;3.95;;;;;;;;;;5086900;28;20027;-66
2021/08/24 05:24:47;;;;;;;9.43;4.15;;;;;;;;;;5086942;28;20016;-68
2021/08/24 05:27:14;;;;;;;9.45;4.40;;;;;;;;;;5096128;28;20255;-68
2021/08/24 05:29:40;;;;;;;14.00;6.20;;;;;;;;;;5086484;28;20016;-68
2021/08/24 05:32:06;;;;;;;12.05;5.88;;;;;;;;;;5092303;28;20032;-68
2021/08/24 05:34:32;;;;;;;12.02;5.18;;;;;;;;;;5087293;28;20430;-67
2021/08/24 05:36:58;;;;;;;7.18;5.32;;;;;;;;;;5082158;28;20028;-67
2021/08/24 05:39:25;;;;;;;11.38;5.00;;;;;;;;;;5084843;28;20024;-68
2021/08/24 05:41:51;;;;;;;9.00;5.20;;;;;;;;;;5081485;28;20251;-67
2021/08/24 05:44:18;;;;;;;8.70;5.15;;;;;;;;;;5088329;28;20038;-67
2021/08/24 05:46:44;;;;;;;10.50;5.10;;;;;;;;;;5087067;28;20470;-67
2021/08/24 05:49:10;;;;;;;8.25;5.18;;;;;;;;;;5087860;28;20070;-67
2021/08/24 05:51:37;;;;;;;10.30;5.15;;;;;;;;;;5083504;28;20468;-68
2021/08/24 05:54:03;;;;;;;11.00;5.50;;;;;;;;;;5086773;28;20053;-69
2021/08/24 05:56:30;;;;;;;7.82;5.05;;;;;;;;;;5091214;28;20190;-68
2021/08/24 05:58:56;;;;;;;10.85;4.72;;;;;;;;;;5088589;28;20028;-68
2021/08/24 06:01:23;;;;;;;8.23;4.63;;;;;;;;;;5090610;28;20012;-69
2021/08/24 06:03:49;;;;;;;7.60;4.93;;;;;;;;;;5090164;28;20020;-68
2021/08/24 06:06:18;;;;;;;5.57;3.83;;;;;;;;;;5094917;28;20150;-68
2021/08/24 06:08:45;;;;;;;6.35;3.85;;;;;;;;;;5087108;28;20107;-68
2021/08/24 06:11:21;;;;;;;4.25;3.67;;;;;;;;;;5094914;28;20415;-68
2021/08/24 06:13:47;;;;;;;4.40;3.97;;;;;;;;;;5096333;28;20024;-68
2021/08/24 06:16:14;;;;;;;7.60;4.70;;;;;;;;;;5090579;28;20526;-68
2021/08/24 06:18:40;;;;;;;4.32;3.90;;;;;;;;;;5094172;28;20409;-68
2021/08/24 06:21:06;;;;;;;4.97;3.83;;;;;;;;;;5093582;28;20403;-68
2021/08/24 06:23:33;;;;;;;7.28;4.13;;;;;;;;;;5092113;28;20031;-68
2021/08/24 06:25:59;;;;;;;6.75;3.85;;;;;;;;;;5092783;28;20024;-68
2021/08/24 06:28:25;;;;;;;7.43;4.10;;;;;;;;;;5090999;28;20024;-68
2021/08/24 06:30:52;;;;;;;5.72;4.32;;;;;;;;;;5092040;28;20061;-69
2021/08/24 06:33:19;;;;;;;5.22;3.70;;;;;;;;;;5090706;28;20476;-69
2021/08/24 06:35:45;;;;;;;5.47;4.10;;;;;;;;;;5094035;28;20024;-68
2021/08/24 06:38:11;;;;;;;4.45;3.72;;;;;;;;;;5091152;28;20024;-68
2021/08/24 06:40:37;;;;;;;5.53;3.90;;;;;;;;;;5091266;28;20028;-68
2021/08/24 06:43:03;;;;;;;7.90;4.10;;;;;;;;;;5091774;28;20028;-69
2021/08/24 06:45:31;;;;;;;5.65;3.65;;;;;;;;;;5094719;28;20207;-68
2021/08/24 06:47:57;;;;;;;4.45;3.38;;;;;;;;;;5092533;28;20036;-69
2021/08/24 06:50:25;;;;;;;3.92;3.53;;;;;;;;;;5092395;28;20234;-69
2021/08/24 06:52:51;;;;;;;8.13;3.85;;;;;;;;;;5094677;28;20020;-69
2021/08/24 06:55:17;;;;;;;3.97;3.50;;;;;;;;;;5070309;28;20128;-69
2021/08/24 06:57:44;;;;;;;4.82;3.50;;;;;;;;;;5093212;28;20225;-69
2021/08/24 07:00:15;;;;;;;5.65;3.67;;;;;;;;;;5089321;28;20020;-69
2021/08/24 07:02:41;;;;;;;6.55;4.47;;;;;;;;;;5088137;28;20030;-69
2021/08/24 07:05:08;;;;;;;5.57;4.20;;;;;;;;;;5090576;28;20119;-69
2021/08/24 07:07:34;;;;;;;4.72;3.80;;;;;;;;;;5091848;28;20024;-69
2021/08/24 07:10:00;;;;;;;6.45;3.78;;;;;;;;;;5073892;28;20059;-69
2021/08/24 07:12:26;;;;;;;5.88;3.58;;;;;;;;;;5090728;28;20024;-68
2021/08/24 07:14:52;;;;;;;5.10;3.55;;;;;;;;;;5092956;28;20429;-68
2021/08/24 07:17:20;;;;;;;5.35;3.45;;;;;;;;;;5089875;28;20031;-68
2021/08/24 07:19:46;;;;;;;5.20;4.15;;;;;;;;;;5095535;28;20024;-68
2021/08/24 07:22:12;;;;;;;6.75;3.53;;;;;;;;;;5091891;28;20084;-68
2021/08/24 07:24:38;;;;;;;9.50;4.28;;;;;;;;;;5090038;28;20468;-68
2021/08/24 07:27:05;;;;;;;6.03;4.18;;;;;;;;;;5073567;28;20479;-68
2021/08/24 07:29:31;;;;;;;5.03;4.03;;;;;;;;;;5088987;28;20024;-68
2021/08/24 07:31:57;;;;;;;6.15;4.35;;;;;;;;;;5093932;28;20463;-68
2021/08/24 07:34:23;;;;;;;5.70;4.10;;;;;;;;;;5072606;28;20031;-68
2021/08/24 07:36:49;;;;;;;5.57;3.95;;;;;;;;;;5092128;28;20054;-68
2021/08/24 07:39:15;;;;;;;7.00;4.03;;;;;;;;;;5092699;28;20476;-68
2021/08/24 07:41:41;;;;;;;5.13;3.70;;;;;;;;;;5088184;28;20044;-68
2021/08/24 07:44:08;;;;;;;6.80;4.20;;;;;;;;;;5091718;28;20078;-68
2021/08/24 07:46:34;;;;;;;6.55;3.72;;;;;;;;;;5090064;28;20282;-68
2021/08/24 07:49:00;;;;;;;4.63;3.83;;;;;;;;;;5093762;28;20024;-68
2021/08/24 07:51:26;;;;;;;8.02;4.13;;;;;;;;;;5091252;28;20020;-68
2021/08/24 07:53:53;;;;;;;6.28;4.20;;;;;;;;;;5074864;28;20484;-68
2021/08/24 07:56:21;;;;;;;7.65;4.10;;;;;;;;;;5089325;28;20016;-68
2021/08/24 07:58:47;;;;;;;5.90;4.05;;;;;;;;;;5090059;28;20027;-68
2021/08/24 08:01:13;;;;;;;5.50;3.63;;;;;;;;;;5092774;28;20209;-68
2021/08/24 08:03:40;;;;;;;6.32;4.00;;;;;;;;;;5088055;28;20031;-68
2021/08/24 08:06:06;;;;;;;6.38;4.10;;;;;;;;;;5091911;28;20023;-68
2021/08/24 08:08:32;;;;;;;6.07;4.03;;;;;;;;;;5089963;28;20020;-68
2021/08/24 08:10:59;;;;;;;6.13;4.10;;;;;;;;;;5092695;28;20024;-68
2021/08/24 08:13:25;;;;;;;4.13;3.70;;;;;;;;;;5072089;28;20210;-68
2021/08/24 08:15:52;;;;;;;6.70;4.50;;;;;;;;;;5090823;28;20035;-68
2021/08/24 08:18:18;;;;;;;7.45;4.00;;;;;;;;;;5091738;28;20161;-68
2021/08/24 08:20:44;;;;;;;6.65;4.25;;;;;;;;;;5090927;28;20545;-68
2021/08/24 08:23:11;;;;;;;5.13;3.90;;;;;;;;;;5087754;28;20592;-68
2021/08/24 08:25:38;;;;;;;5.63;4.07;;;;;;;;;;5091826;28;20020;-68
2021/08/24 08:28:04;;;;;;;6.47;4.55;;;;;;;;;;5088494;28;20109;-68
2021/08/24 08:30:31;;;;;;;7.32;3.90;;;;;;;;;;5092584;28;20081;-68
2021/08/24 08:32:59;;;;;;;6.93;4.40;;;;;;;;;;5087763;28;20024;-68
2021/08/24 08:35:25;;;;;;;5.10;4.10;;;;;;;;;;5092898;28;20039;-67
2021/08/24 08:37:52;;;;;;;7.22;4.43;;;;;;;;;;5088221;28;20012;-68
2021/08/24 08:40:21;;;;;;;6.40;4.30;;;;;;;;;;5091363;28;20032;-68
2021/08/24 08:42:57;;;;;;;5.47;4.10;;;;;;;;;;5091102;28;20038;-68
2021/08/24 08:45:26;;;;;;;8.82;4.20;;;;;;;;;;5086889;28;20023;-68
2021/08/24 08:48:05;;;;;;;8.73;4.20;;;;;;;;;;5087983;28;20099;-68
2021/08/24 08:50:43;;;;;;;6.10;3.83;;;;;;;;;;5072784;28;20426;-68
2021/08/24 08:53:32;;;;;;;4.95;4.20;;;;;;;;;;5088047;28;20106;-68
2021/08/24 08:56:09;;;;;;;6.65;4.43;;;;;;;;;;5077922;28;20511;-68
2021/08/24 08:58:35;;;;;;;6.10;4.28;;;;;;;;;;5088309;28;20476;-67
2021/08/24 09:01:10;;;;;;;8.15;4.95;;;;;;;;;;5093801;28;20048;-68
2021/08/24 09:03:42;;;;;;;5.78;4.25;;;;;;;;;;5089976;28;20024;-68
2021/08/24 09:06:09;;;;;;;5.90;4.72;;;;;;;;;;5091972;28;20042;-68
2021/08/24 09:08:37;;;;;;;9.73;4.32;;;;;;;;;;5089989;28;20020;-67
2021/08/24 09:11:06;;;;;;;6.70;4.70;;;;;;;;;;5090015;28;20250;-68
2021/08/24 09:13:32;;;;;;;6.53;4.20;;;;;;;;;;5090126;28;20027;-67
2021/08/24 09:16:15;;;;;;;7.57;4.22;;;;;;;;;;5090335;28;20028;-68
2021/08/24 09:18:47;;;;;;;6.32;4.22;;;;;;;;;;5090737;28;20020;-68
2021/08/24 09:21:34;;;;;;;10.23;5.03;;;;;;;;;;5087811;28;20028;-67
2021/08/24 09:24:04;;;;;;;6.97;4.03;;;;;;;;;;5078471;28;20167;-68
2021/08/24 09:26:38;;;;;;;6.97;4.73;;;;;;;;;;5088033;28;20031;-68
2021/08/24 09:29:05;;;;;;;6.15;4.65;;;;;;;;;;5091839;28;20244;-68
2021/08/24 09:31:32;;;;;;;7.20;5.00;;;;;;;;;;5067476;28;20028;-68
2021/08/24 09:33:58;;;;;;;5.57;4.30;;;;;;;;;;5092122;28;20278;-68
2021/08/24 09:36:24;;;;;;;4.90;4.10;;;;;;;;;;5087365;28;20024;-68
2021/08/24 09:38:50;;;;;;;6.93;4.13;;;;;;;;;;5092134;28;20222;-68
2021/08/24 09:41:20;;;;;;;6.18;4.60;;;;;;;;;;5087481;28;20108;-68
2021/08/24 09:43:47;;;;;;;7.40;4.28;;;;;;;;;;5092264;28;20509;-68
2021/08/24 09:46:17;;;;;;;5.95;4.32;;;;;;;;;;5087088;28;20020;-68
2021/08/24 09:49:04;;;;;;;6.47;5.00;;;;;;;;;;5088953;28;20062;-68
2021/08/24 09:51:33;;;;;;;7.38;4.90;;;;;;;;;;5091171;28;20524;-68
2021/08/24 09:54:00;;;;;;;5.43;3.67;;;;;;;;;;5086702;28;20059;-68
2021/08/24 09:56:31;;;;;;;6.82;4.43;;;;;;;;;;5091183;28;20048;-68
2021/08/24 09:58:57;;;;;;;5.65;4.30;;;;;;;;;;5089461;28;20028;-68
2021/08/24 10:01:23;;;;;;;11.32;5.03;;;;;;;;;;5089278;28;20084;-68
2021/08/24 10:04:07;;;;;;;6.68;4.10;;;;;;;;;;5092804;28;20425;-67
2021/08/24 10:06:35;;;;;;;5.85;3.83;;;;;;;;;;5085314;28;20016;-68
2021/08/24 10:09:21;;;;;;;4.75;4.10;;;;;;;;;;5087721;28;20032;-68
2021/08/24 10:11:47;;;;;;;5.05;4.05;;;;;;;;;;5074960;28;20038;-67
2021/08/24 10:14:13;;;;;;;10.10;4.63;;;;;;;;;;5090663;28;20198;-68
2021/08/24 10:16:41;;;;;;;7.28;5.05;;;;;;;;;;5089113;28;20547;-68
2021/08/24 10:19:07;;;;;;;5.07;4.53;;;;;;;;;;5085941;28;20051;-68
2021/08/24 10:21:38;;;;;;;5.47;4.75;;;;;;;;;;5089116;28;20468;-68
2021/08/24 10:24:06;;;;;;;5.25;4.45;;;;;;;;;;5089110;28;20039;-68
2021/08/24 10:26:36;;;;;;;6.18;4.30;;;;;;;;;;5081820;28;20024;-68
2021/08/24 10:29:07;;;;;;;4.97;4.03;;;;;;;;;;5091046;28;20502;-67
2021/08/24 10:31:33;;;;;;;5.78;4.53;;;;;;;;;;5086638;28;20028;-68
2021/08/24 10:34:03;;;;;;;4.95;4.50;;;;;;;;;;5087962;28;20044;-68
2021/08/24 10:36:32;;;;;;;4.35;3.95;;;;;;;;;;5083850;28;20051;-67
2021/08/24 10:39:04;;;;;;;6.68;4.45;;;;;;;;;;5091260;28;20043;-68
2021/08/24 10:41:35;;;;;;;7.60;3.83;;;;;;;;;;5081158;28;20024;-67
2021/08/24 10:44:06;;;;;;;5.35;3.65;;;;;;;;;;5085084;28;20104;-67
2021/08/24 10:46:45;;;;;;;7.45;4.18;;;;;;;;;;5099835;28;20384;-67
2021/08/24 10:49:11;;;;;;;4.95;3.50;;;;;;;;;;5098298;28;20073;-67
2021/08/24 10:51:56;;;;;;;5.05;3.42;;;;;;;;;;5096191;28;20020;-67
2021/08/24 10:54:34;;;;;;;3.78;3.38;;;;;;;;;;5093587;28;20054;-68
2021/08/24 10:57:19;;;;;;;5.35;3.42;;;;;;;;;;5092125;28;20102;-68
2021/08/24 10:59:54;;;;;;;5.18;3.92;;;;;;;;;;5091531;28;20028;-67
2021/08/24 11:02:30;;;;;;;6.30;3.83;;;;;;;;;;5090981;28;20031;-67
2021/08/24 11:05:20;;;;;;;6.35;4.20;;;;;;;;;;5090193;28;20020;-68
2021/08/24 11:07:49;;;;;;;8.00;4.57;;;;;;;;;;5090576;28;20158;-67
2021/08/24 11:10:18;;;;;;;5.03;4.05;;;;;;;;;;5086764;28;20089;-67
2021/08/24 11:12:56;;;;;;;5.07;3.80;;;;;;;;;;5087241;28;20085;-67
2021/08/24 11:15:26;;;;;;;6.53;4.13;;;;;;;;;;5070157;28;20093;-67
2021/08/24 11:18:04;;;;;;;7.10;3.70;;;;;;;;;;5088927;28;20680;-67
2021/08/24 11:20:34;;;;;;;5.65;4.15;;;;;;;;;;5089914;28;20118;-67
2021/08/24 11:23:18;;;;;;;7.13;4.53;;;;;;;;;;5084726;28;20060;-67
2021/08/24 11:25:50;;;;;;;6.10;3.83;;;;;;;;;;5086883;28;20027;-67
2021/08/24 11:28:31;;;;;;;5.45;3.83;;;;;;;;;;5090443;28;20024;-67
2021/08/24 11:31:09;;;;;;;6.53;3.90;;;;;;;;;;5085870;28;20127;-67
2021/08/24 11:33:38;;;;;;;4.85;3.92;;;;;;;;;;5090133;28;20462;-67
2021/08/24 11:36:07;;;;;;;5.53;3.65;;;;;;;;;;5085413;28;20024;-67
2021/08/24 11:38:35;;;;;;;4.97;4.07;;;;;;;;;;5089249;28;20047;-67
2021/08/24 11:41:04;;;;;;;5.60;3.78;;;;;;;;;;5086364;28;20024;-67
2021/08/24 11:43:40;;;;;;;8.60;3.92;;;;;;;;;;5087892;28;20028;-67
2021/08/24 11:46:13;;;;;;;6.70;4.00;;;;;;;;;;5068886;28;20694;-67
2021/08/24 11:48:42;;;;;;;6.40;4.18;;;;;;;;;;5071025;28;20085;-67
2021/08/24 11:51:25;;;;;;;5.78;4.03;;;;;;;;;;5090745;28;20028;-67
2021/08/24 11:53:58;;;;;;;4.97;3.78;;;;;;;;;;5086689;28;20054;-67
2021/08/24 11:56:43;;;;;;;4.03;3.50;;;;;;;;;;5093122;28;20269;-67
2021/08/24 11:59:38;;;;;;;8.05;4.03;;;;;;;;;;5069822;28;20084;-67
2021/08/24 12:02:05;;;;;;;3.55;3.22;;;;;;;;;;5058274;28;20035;-67
2021/08/24 12:04:35;;;;;;;5.70;3.75;;;;;;;;;;5082133;28;20020;-67
2021/08/24 12:07:08;;;;;;;5.25;3.50;;;;;;;;;;5088732;28;20054;-67
2021/08/24 12:09:49;;;;;;;4.93;4.13;;;;;;;;;;5082612;28;20039;-67
2021/08/24 12:12:38;;;;;;;6.32;3.83;;;;;;;;;;5085703;28;20016;-67
2021/08/24 12:15:06;;;;;;;4.60;3.75;;;;;;;;;;5094282;28;20032;-67
2021/08/24 12:17:33;;;;;;;6.20;3.92;;;;;;;;;;5089034;28;20629;-67
2021/08/24 12:20:00;;;;;;;5.50;3.17;;;;;;;;;;5085618;28;20111;-67
2021/08/24 12:22:35;;;;;;;5.93;3.63;;;;;;;;;;5086554;28;20028;-67
2021/08/24 12:25:08;;;;;;;5.20;4.03;;;;;;;;;;5088417;28;20024;-67
2021/08/24 12:27:36;;;;;;;4.07;3.35;;;;;;;;;;5088097;28;20480;-66
2021/08/24 12:30:07;;;;;;;4.80;3.20;;;;;;;;;;5086845;28;20043;-67
2021/08/24 12:32:39;;;;;;;7.47;3.80;;;;;;;;;;5083122;28;20051;-68
2021/08/24 12:35:28;;;;;;;6.07;3.80;;;;;;;;;;5088519;28;20672;-66
2021/08/24 12:37:56;;;;;;;9.30;4.38;;;;;;;;;;5089250;28;20020;-67
2021/08/24 12:40:42;;;;;;;6.32;3.58;;;;;;;;;;5071218;28;20075;-68
2021/08/24 12:43:27;;;;;;;9.45;3.70;;;;;;;;;;5077606;28;20039;-67
2021/08/24 12:46:16;;;;;;;6.75;3.20;;;;;;;;;;5087401;28;20484;-67
2021/08/24 12:49:02;;;;;;;5.32;3.50;;;;;;;;;;5088707;28;20026;-68
2021/08/24 12:51:29;;;;;;;4.57;3.40;;;;;;;;;;5087705;28;20020;-68
2021/08/24 12:54:01;;;;;;;7.05;3.47;;;;;;;;;;5086761;28;20043;-67
2021/08/24 12:56:39;;;;;;;5.15;3.55;;;;;;;;;;5087553;28;20024;-67
2021/08/24 12:59:05;;;;;;;7.05;4.07;;;;;;;;;;5083309;28;20343;-67
2021/08/24 13:01:32;;;;;;;5.20;3.47;;;;;;;;;;5070272;28;20070;-67
2021/08/24 13:04:07;;;;;;;5.18;3.65;;;;;;;;;;5085158;28;20329;-67
2021/08/24 13:06:38;;;;;;;7.32;3.72;;;;;;;;;;5086243;28;20019;-67
2021/08/24 13:09:19;;;;;;;6.45;4.07;;;;;;;;;;5084895;28;20102;-67
2021/08/24 13:11:45;;;;;;;;;;;;;;;;;;5081569;28;20157;-67
2021/08/24 13:14:48;;;;;;;7.43;4.45;;;;;;;;;;5087101;28;20498;-67
2021/08/24 13:17:19;;;;;;;5.55;4.20;;;;;;;;;;4956513;28;20486;-68
2021/08/24 13:20:04;;;;;;;7.15;4.10;;;;;;;;;;5068656;28;20067;-67
2021/08/24 13:22:30;;;;;;;8.35;4.20;;;;;;;;;;5084692;28;20024;-67
2021/08/24 13:24:57;;;;;;;8.57;4.43;;;;;;;;;;5074373;28;20021;-67
2021/08/24 13:27:29;;;;;;;9.30;4.20;;;;;;;;;;5087798;28;20687;-67
2021/08/24 13:29:56;;;;;;;8.88;3.90;;;;;;;;;;5081928;28;20028;-68
2021/08/24 13:32:25;;;;;;;11.18;4.55;;;;;;;;;;5089259;28;20099;-67
2021/08/24 13:34:53;;;;;;;9.43;4.65;;;;;;;;;;5087782;28;20394;-67
2021/08/24 13:37:35;;;;;;;5.90;3.65;;;;;;;;;;5070693;28;20015;-67
2021/08/24 13:40:09;;;;;;;5.25;3.47;;;;;;;;;;5085010;28;20024;-67
2021/08/24 13:42:38;;;;;;;7.10;4.20;;;;;;;;;;5089455;28;20031;-68
2021/08/24 13:45:05;;;;;;;7.70;4.20;;;;;;;;;;5086118;28;20032;-67
2021/08/24 13:47:32;;;;;;;7.63;3.60;;;;;;;;;;5083378;28;20852;-68
2021/08/24 13:50:00;;;;;;;7.90;4.00;;;;;;;;;;5083198;28;20070;-68
2021/08/24 13:52:34;;;;;;;7.47;4.13;;;;;;;;;;5088028;28;20534;-67
2021/08/24 13:55:01;;;;;;;7.35;4.03;;;;;;;;;;5084880;28;20056;-68
2021/08/24 13:57:35;;;;;;;10.18;4.95;;;;;;;;;;5086789;28;20030;-68
2021/08/24 14:00:05;;;;;;;9.32;4.32;;;;;;;;;;5084517;28;20066;-67
2021/08/24 14:02:34;;;;;;;9.23;4.18;;;;;;;;;;5086615;28;20557;-67
2021/08/24 14:05:00;;;;;;;8.07;4.07;;;;;;;;;;5086170;28;20024;-67
2021/08/24 14:07:39;;;;;;;7.93;4.45;;;;;;;;;;5086495;28;20028;-67
2021/08/24 14:10:14;;;;;;;6.38;4.18;;;;;;;;;;5081706;28;20088;-68
2021/08/24 14:12:49;;;;;;;6.10;4.07;;;;;;;;;;5086231;28;20032;-69
2021/08/24 14:15:35;;;;;;;7.43;4.10;;;;;;;;;;5086759;28;20043;-67
2021/08/24 14:18:01;;;;;;;5.80;4.10;;;;;;;;;;5082436;28;20036;-68
2021/08/24 14:20:42;;;;;;;6.80;4.00;;;;;;;;;;5089407;28;20027;-67
2021/08/24 14:23:11;;;;;;;7.53;4.03;;;;;;;;;;5087398;28;20039;-67
2021/08/24 14:25:39;;;;;;;9.35;3.92;;;;;;;;;;5092010;28;20271;-68
2021/08/24 14:28:13;;;;;;;7.63;3.92;;;;;;;;;;5090058;28;20657;-69
2021/08/24 14:30:41;;;;;;;7.57;3.85;;;;;;;;;;5091805;28;20024;-67
2021/08/24 14:33:33;;;;;;;7.25;4.13;;;;;;;;;;5087060;28;20493;-68
2021/08/24 14:36:01;;;;;;;8.35;4.38;;;;;;;;;;5090722;28;20056;-67
2021/08/24 14:38:32;;;;;;;6.68;4.18;;;;;;;;;;5089906;28;20052;-67
2021/08/24 14:40:58;;;;;;;;;;;;;;;;;;5085451;28;20403;-67
2021/08/24 14:43:24;;;;;;;6.50;4.03;;;;;;;;;;5090633;28;20371;-67
2021/08/24 14:45:55;;;;;;;7.00;4.18;;;;;;;;;;5089689;28;20044;-67
2021/08/24 14:48:26;;;;;;;8.57;3.85;;;;;;;;;;5085798;28;20035;-67
2021/08/24 14:50:57;;;;;;;12.10;4.20;;;;;;;;;;5072624;28;20035;-67
2021/08/24 14:53:23;;;;;;;;;;;;;;;;;;5086440;28;20023;-67
2021/08/24 14:56:02;;;;;;;7.55;4.32;;;;;;;;;;5087297;28;19927;-67
2021/08/24 14:58:28;;;;;;;7.47;4.00;;;;;;;;;;5088872;28;20023;-67
2021/08/24 15:01:15;;;;;;;8.52;4.50;;;;;;;;;;5089307;28;20027;-67